createdAt,value
2023-05-11T00:02:12.009Z,6.87
2023-05-11T00:04:39.403Z,7.37
2023-05-11T00:07:05.973Z,7.03
2023-05-11T00:09:32.455Z,6.73
2023-05-11T00:11:58.729Z,7.53
2023-05-11T00:14:25.044Z,7.60
2023-05-11T00:16:51.320Z,7.23
2023-05-11T00:19:17.585Z,7.10
2023-05-11T00:21:43.852Z,7.43
2023-05-11T00:24:10.185Z,7.60
2023-05-11T00:26:36.486Z,8.20
2023-05-11T00:29:03.077Z,8.23
2023-05-11T00:31:30.568Z,8.00
2023-05-11T00:33:57.013Z,7.73
2023-05-11T00:36:23.249Z,7.80
2023-05-11T00:38:50.072Z,8.00
2023-05-11T00:41:16.565Z,8.13
2023-05-11T00:43:42.862Z,8.37
2023-05-11T00:46:09.149Z,8.07
2023-05-11T00:48:35.640Z,8.07
2023-05-11T00:51:03.532Z,8.03
2023-05-11T00:53:34.698Z,8.00
2023-05-11T00:56:01.290Z,7.90
2023-05-11T00:58:27.600Z,7.33
2023-05-11T01:00:53.877Z,7.10
2023-05-11T01:03:20.469Z,7.57
2023-05-11T01:05:54.570Z,7.60
2023-05-11T01:08:30.999Z,7.07
2023-05-11T01:11:02.506Z,7.03
2023-05-11T01:13:37.502Z,7.67
2023-05-11T01:16:08.572Z,8.23
2023-05-11T01:18:49.600Z,7.60
2023-05-11T01:21:17.198Z,6.93
2023-05-11T01:23:52.821Z,6.87
2023-05-11T01:26:21.954Z,7.13
2023-05-11T01:28:48.164Z,7.50
2023-05-11T01:31:15.360Z,6.80
2023-05-11T01:33:46.370Z,7.43
2023-05-11T01:36:12.849Z,7.50
2023-05-11T01:38:40.662Z,7.60
2023-05-11T01:41:15.153Z,7.27
2023-05-11T01:43:43.033Z,7.97
2023-05-11T01:46:10.350Z,7.33
2023-05-11T01:48:39.418Z,8.10
2023-05-11T01:51:05.673Z,8.13
2023-05-11T01:53:34.415Z,8.17
2023-05-11T01:56:01.476Z,10.17
2023-05-11T01:58:28.950Z,10.30
2023-05-11T02:00:55.670Z,10.97
2023-05-11T02:03:23.009Z,12.40
2023-05-11T02:05:50.818Z,12.77
2023-05-11T02:08:18.419Z,12.97
2023-05-11T02:10:45.962Z,11.73
2023-05-11T02:13:13.297Z,12.93
2023-05-11T02:15:41.425Z,13.83
2023-05-11T02:18:11.192Z,13.97
2023-05-11T02:20:39.522Z,12.13
2023-05-11T02:23:06.896Z,13.30
2023-05-11T02:25:33.392Z,12.90
2023-05-11T02:27:59.718Z,13.13
2023-05-11T02:30:27.072Z,12.40
2023-05-11T02:32:54.712Z,13.17
2023-05-11T02:35:23.217Z,13.43
2023-05-11T02:37:49.828Z,13.27
2023-05-11T02:40:20.944Z,14.10
2023-05-11T02:42:49.552Z,12.50
2023-05-11T02:45:16.800Z,12.97
2023-05-11T02:47:45.416Z,12.77
2023-05-11T02:50:12.532Z,13.00
2023-05-11T02:52:43.097Z,13.13
2023-05-11T02:55:10.864Z,12.57
2023-05-11T02:57:37.752Z,12.23
2023-05-11T03:00:04.413Z,11.67
2023-05-11T03:02:30.950Z,11.70
2023-05-11T03:04:57.390Z,11.90
2023-05-11T03:07:23.621Z,11.90
2023-05-11T03:09:49.925Z,11.43
2023-05-11T03:12:16.309Z,11.90
2023-05-11T03:14:42.997Z,11.50
2023-05-11T03:17:09.552Z,11.30
2023-05-11T03:19:37.554Z,11.43
2023-05-11T03:22:04.223Z,11.20
2023-05-11T03:24:31.284Z,11.20
2023-05-11T03:26:57.831Z,11.53
2023-05-11T03:29:25.496Z,10.50
2023-05-11T03:31:51.944Z,10.97
2023-05-11T03:34:18.273Z,9.17
2023-05-11T03:36:45.605Z,9.23
2023-05-11T03:39:12.491Z,8.67
2023-05-11T03:41:39.613Z,9.17
2023-05-11T03:44:06.590Z,8.97
2023-05-11T03:46:33.120Z,8.70
2023-05-11T03:48:59.481Z,9.10
2023-05-11T03:51:26.059Z,9.10
2023-05-11T03:53:52.509Z,8.57
2023-05-11T03:56:18.825Z,8.93
2023-05-11T03:58:45.093Z,8.90
2023-05-11T04:01:12.763Z,8.40
2023-05-11T04:03:52.884Z,8.50
2023-05-11T04:06:19.696Z,8.70
2023-05-11T04:08:45.949Z,8.30
2023-05-11T04:11:12.182Z,8.33
2023-05-11T04:13:38.543Z,8.80
2023-05-11T04:16:05.931Z,8.73
2023-05-11T04:18:32.336Z,8.93
2023-05-11T04:20:58.621Z,8.50
2023-05-11T04:23:24.864Z,8.57
2023-05-11T04:25:54.726Z,8.07
2023-05-11T04:28:22.296Z,8.23
2023-05-11T04:30:55.196Z,7.73
2023-05-11T04:33:21.458Z,8.17
2023-05-11T04:35:49.459Z,7.80
2023-05-11T04:38:15.758Z,8.10
2023-05-11T04:40:41.989Z,7.73
2023-05-11T04:43:08.241Z,8.00
2023-05-11T04:45:34.509Z,7.40
2023-05-11T04:48:00.832Z,7.47
2023-05-11T04:50:27.099Z,7.70
2023-05-11T04:52:53.402Z,7.90
2023-05-11T04:55:19.714Z,7.90
2023-05-11T04:57:46.029Z,7.27
2023-05-11T05:00:12.404Z,7.13
2023-05-11T05:02:38.751Z,7.70
2023-05-11T05:05:05.278Z,6.97
2023-05-11T05:07:31.524Z,7.00
2023-05-11T05:09:57.781Z,7.23
2023-05-11T05:12:24.029Z,7.03
2023-05-11T05:14:50.320Z,7.40
2023-05-11T05:17:16.637Z,7.00
2023-05-11T05:19:42.867Z,7.00
2023-05-11T05:22:09.189Z,6.97
2023-05-11T05:24:35.444Z,6.90
2023-05-11T05:27:01.704Z,6.93
2023-05-11T05:29:27.980Z,7.30
2023-05-11T05:31:54.205Z,6.87
2023-05-11T05:34:20.447Z,7.63
2023-05-11T05:36:46.840Z,7.00
2023-05-11T05:39:13.229Z,6.67
2023-05-11T05:41:39.544Z,6.30
2023-05-11T05:44:06.257Z,6.43
2023-05-11T05:46:32.559Z,6.20
2023-05-11T05:48:58.943Z,5.90
2023-05-11T05:51:25.186Z,6.70
2023-05-11T05:53:51.573Z,5.90
2023-05-11T05:56:17.889Z,5.30
2023-05-11T05:58:44.121Z,5.80
2023-05-11T06:01:10.568Z,5.33
2023-05-11T06:03:36.990Z,5.33
2023-05-11T06:06:03.541Z,5.40
2023-05-11T06:08:29.759Z,4.90
2023-05-11T06:10:56.280Z,4.80
2023-05-11T06:13:22.530Z,4.77
2023-05-11T06:15:48.847Z,5.07
2023-05-11T06:18:15.333Z,5.10
2023-05-11T06:20:42.141Z,4.70
2023-05-11T06:23:08.444Z,5.00
2023-05-11T06:25:35.328Z,4.50
2023-05-11T06:28:02.212Z,4.63
2023-05-11T06:30:28.922Z,3.80
2023-05-11T06:32:55.413Z,3.75
2023-05-11T06:35:22.551Z,3.88
2023-05-11T06:37:49.218Z,3.65
2023-05-11T06:40:16.467Z,3.20
2023-05-11T06:42:43.074Z,3.63
2023-05-11T06:45:09.907Z,3.63
2023-05-11T06:47:36.727Z,3.03
2023-05-11T06:50:04.057Z,2.97
2023-05-11T06:52:30.482Z,3.00
2023-05-11T06:54:56.872Z,2.72
2023-05-11T06:57:23.111Z,3.83
2023-05-11T06:59:49.408Z,2.88
2023-05-11T07:02:15.623Z,2.72
2023-05-11T07:04:41.890Z,2.88
2023-05-11T07:07:08.985Z,2.50
2023-05-11T07:09:35.251Z,2.88
2023-05-11T07:12:01.520Z,2.50
2023-05-11T07:14:27.761Z,2.33
2023-05-11T07:16:54.059Z,2.40
2023-05-11T07:19:20.360Z,2.45
2023-05-11T07:21:46.764Z,2.10
2023-05-11T07:24:13.142Z,2.30
2023-05-11T07:26:39.403Z,2.47
2023-05-11T07:29:05.686Z,2.25
2023-05-11T07:31:32.452Z,2.13
2023-05-11T07:33:58.759Z,2.40
2023-05-11T07:36:25.310Z,2.10
2023-05-11T07:38:51.533Z,2.15
2023-05-11T07:41:19.123Z,2.20
2023-05-11T07:43:45.363Z,2.30
2023-05-11T07:46:12.294Z,2.47
2023-05-11T07:48:38.539Z,2.42
2023-05-11T07:51:05.626Z,2.30
2023-05-11T07:53:33.048Z,2.35
2023-05-11T07:56:00.724Z,2.20
2023-05-11T07:58:27.054Z,2.28
2023-05-11T08:00:53.876Z,2.38
2023-05-11T08:03:20.268Z,2.50
2023-05-11T08:05:47.177Z,2.50
2023-05-11T08:08:13.462Z,2.60
2023-05-11T08:10:39.984Z,2.35
2023-05-11T08:13:06.251Z,2.78
2023-05-11T08:15:32.631Z,2.33
2023-05-11T08:17:59.264Z,2.85
2023-05-11T08:20:26.052Z,2.50
2023-05-11T08:22:52.349Z,2.78
2023-05-11T08:25:18.911Z,2.70
2023-05-11T08:27:45.335Z,2.70
2023-05-11T08:30:12.130Z,2.60
2023-05-11T08:32:54.594Z,3.00
2023-05-11T08:35:24.748Z,2.90
2023-05-11T08:37:51.005Z,2.80
2023-05-11T08:40:17.477Z,2.90
2023-05-11T08:42:45.569Z,2.70
2023-05-11T08:45:12.172Z,2.88
2023-05-11T08:47:38.551Z,2.97
2023-05-11T08:50:05.051Z,2.75
2023-05-11T08:52:31.320Z,2.88
2023-05-11T08:54:57.661Z,3.05
2023-05-11T08:57:23.981Z,3.08
2023-05-11T08:59:51.340Z,3.05
2023-05-11T09:02:18.856Z,2.42
2023-05-11T09:04:48.201Z,2.70
2023-05-11T09:07:15.975Z,2.95
2023-05-11T09:09:42.245Z,2.53
2023-05-11T09:12:09.307Z,2.65
2023-05-11T09:14:36.265Z,2.67
2023-05-11T09:17:03.862Z,2.70
2023-05-11T09:19:30.917Z,2.40
2023-05-11T09:21:58.694Z,2.47
2023-05-11T09:24:25.165Z,2.85
2023-05-11T09:27:05.847Z,2.25
2023-05-11T09:29:32.142Z,2.50
2023-05-11T09:31:58.446Z,2.70
2023-05-11T09:34:24.853Z,2.43
2023-05-11T09:36:52.236Z,2.60
2023-05-11T09:39:35.584Z,2.60
2023-05-11T09:42:12.135Z,2.47
2023-05-11T09:44:38.819Z,2.50
2023-05-11T09:47:15.304Z,2.40
2023-05-11T09:49:43.371Z,2.57
2023-05-11T09:52:13.820Z,2.37
2023-05-11T09:54:41.264Z,2.47
2023-05-11T09:57:08.383Z,2.22
2023-05-11T09:59:41.304Z,2.70
2023-05-11T10:02:16.806Z,2.60
2023-05-11T10:04:43.098Z,2.50
2023-05-11T10:07:09.404Z,2.37
2023-05-11T10:09:35.983Z,2.40
2023-05-11T10:12:02.960Z,2.27
2023-05-11T10:14:31.686Z,2.50
2023-05-11T10:16:58.361Z,2.53
2023-05-11T10:19:24.649Z,2.23
2023-05-11T10:21:51.955Z,2.13
2023-05-11T10:24:20.394Z,2.53
2023-05-11T10:26:47.591Z,2.47
2023-05-11T10:29:13.925Z,2.27
2023-05-11T10:31:41.079Z,2.17
2023-05-11T10:34:07.566Z,2.57
2023-05-11T10:36:33.863Z,2.10
2023-05-11T10:39:00.114Z,2.37
2023-05-11T10:41:32.238Z,1.97
2023-05-11T10:44:11.631Z,2.23
2023-05-11T10:46:43.679Z,2.30
2023-05-11T10:49:12.808Z,2.23
2023-05-11T10:51:46.026Z,2.10
2023-05-11T10:54:48.017Z,2.10
2023-05-11T10:57:24.080Z,2.00
2023-05-11T11:00:10.024Z,1.93
2023-05-11T11:02:36.910Z,2.10
2023-05-11T11:05:05.853Z,2.20
2023-05-11T11:07:32.342Z,2.30
2023-05-11T11:10:07.181Z,2.40
2023-05-11T11:12:36.488Z,2.00
2023-05-11T11:15:04.983Z,2.10
2023-05-11T11:17:32.225Z,2.53
2023-05-11T11:20:01.042Z,2.40
2023-05-11T11:22:36.495Z,2.07
2023-05-11T11:25:06.133Z,2.30
2023-05-11T11:27:41.738Z,2.27
2023-05-11T11:30:20.664Z,2.20
2023-05-11T11:32:51.012Z,2.03
2023-05-11T11:35:36.314Z,2.00
2023-05-11T11:38:03.517Z,1.90
2023-05-11T11:40:43.261Z,1.93
2023-05-11T11:43:18.970Z,1.90
2023-05-11T11:45:52.561Z,2.23
2023-05-11T11:48:23.244Z,2.20
2023-05-11T11:50:59.897Z,1.90
2023-05-11T11:53:38.588Z,2.00
2023-05-11T11:56:05.655Z,2.27
2023-05-11T11:58:41.184Z,2.10
2023-05-11T12:01:07.808Z,2.40
2023-05-11T12:03:37.143Z,1.80
2023-05-11T12:06:05.174Z,1.90
2023-05-11T12:08:32.358Z,2.40
2023-05-11T12:10:59.180Z,2.07
2023-05-11T12:13:25.884Z,1.97
2023-05-11T12:16:12.284Z,2.13
2023-05-11T12:18:39.017Z,2.00
2023-05-11T12:21:05.482Z,1.73
2023-05-11T12:23:32.354Z,1.87
2023-05-11T12:26:02.922Z,2.47
2023-05-11T12:28:30.195Z,2.10
2023-05-11T12:30:58.477Z,2.13
2023-05-11T12:33:26.874Z,2.20
2023-05-11T12:35:53.827Z,1.80
2023-05-11T12:38:20.434Z,2.47
2023-05-11T12:40:50.424Z,1.80
2023-05-11T12:43:17.596Z,1.90
2023-05-11T12:45:44.766Z,2.10
2023-05-11T12:48:12.018Z,2.00
2023-05-11T12:50:41.790Z,1.50
2023-05-11T12:53:15.211Z,1.80
2023-05-11T12:55:41.983Z,2.40
2023-05-11T12:58:08.519Z,1.80
2023-05-11T13:00:34.865Z,1.73
2023-05-11T13:03:01.254Z,1.80
2023-05-11T13:05:27.988Z,2.00
2023-05-11T13:07:58.500Z,2.13
2023-05-11T13:10:26.820Z,1.90
2023-05-11T13:12:53.479Z,1.80
2023-05-11T13:15:21.911Z,1.87
2023-05-11T13:17:48.592Z,1.93
2023-05-11T13:20:19.502Z,2.30
2023-05-11T13:22:46.588Z,1.93
2023-05-11T13:25:17.115Z,2.10
2023-05-11T13:27:43.643Z,1.80
2023-05-11T13:30:10.279Z,1.80
2023-05-11T13:32:37.276Z,1.80
2023-05-11T13:35:04.796Z,1.80
2023-05-11T13:37:31.192Z,1.67
2023-05-11T13:39:57.605Z,1.90
2023-05-11T13:42:24.148Z,2.00
2023-05-11T13:44:50.487Z,1.97
2023-05-11T13:47:16.782Z,1.93
2023-05-11T13:49:43.912Z,2.07
2023-05-11T13:52:11.006Z,1.90
2023-05-11T13:54:37.318Z,2.00
2023-05-11T13:57:03.758Z,1.80
2023-05-11T13:59:30.038Z,2.00
2023-05-11T14:01:56.357Z,1.90
2023-05-11T14:04:22.736Z,2.20
2023-05-11T14:06:49.035Z,2.03
2023-05-11T14:09:15.538Z,1.95
2023-05-11T14:11:41.855Z,2.20
2023-05-11T14:14:08.162Z,1.60
2023-05-11T14:16:34.479Z,1.80
2023-05-11T14:19:01.009Z,1.70
2023-05-11T14:21:27.385Z,2.10
2023-05-11T14:24:09.778Z,2.00
2023-05-11T14:26:37.687Z,1.97
2023-05-11T14:29:03.939Z,2.00
2023-05-11T14:31:30.752Z,2.00
2023-05-11T14:33:57.062Z,1.80
2023-05-11T14:36:23.539Z,2.10
2023-05-11T14:38:49.768Z,1.90
2023-05-11T14:41:16.280Z,1.90
2023-05-11T14:43:43.294Z,1.80
2023-05-11T14:46:09.593Z,1.70
2023-05-11T14:48:36.485Z,2.07
2023-05-11T14:51:03.554Z,2.37
2023-05-11T14:53:29.842Z,1.93
2023-05-11T14:55:56.721Z,1.93
2023-05-11T14:58:23.033Z,1.70
2023-05-11T15:00:49.302Z,2.00
2023-05-11T15:03:15.648Z,1.90
2023-05-11T15:05:42.107Z,2.00
2023-05-11T15:08:18.346Z,2.30
2023-05-11T15:10:49.207Z,1.90
2023-05-11T15:13:15.494Z,1.70
2023-05-11T15:15:41.879Z,1.97
2023-05-11T15:18:09.217Z,1.73
2023-05-11T15:20:38.651Z,1.80
2023-05-11T15:23:06.262Z,1.63
2023-05-11T15:25:32.759Z,2.30
2023-05-11T15:27:59.025Z,1.60
2023-05-11T15:30:25.343Z,1.57
2023-05-11T15:32:51.856Z,1.80
2023-05-11T15:35:18.473Z,1.80
2023-05-11T15:37:44.860Z,1.60
2023-05-11T15:40:12.070Z,1.87
2023-05-11T15:42:38.449Z,1.90
2023-05-11T15:45:06.308Z,2.00
2023-05-11T15:47:32.684Z,1.67
2023-05-11T15:49:58.982Z,1.70
2023-05-11T15:52:25.348Z,1.80
2023-05-11T15:54:51.713Z,2.03
2023-05-11T15:57:17.944Z,2.10
2023-05-11T15:59:44.240Z,2.00
2023-05-11T16:02:10.700Z,1.77
2023-05-11T16:04:37.025Z,2.00
2023-05-11T16:07:03.365Z,1.70
2023-05-11T16:09:29.626Z,1.90
2023-05-11T16:11:56.532Z,1.90
2023-05-11T16:14:22.823Z,2.03
2023-05-11T16:16:49.190Z,2.00
2023-05-11T16:19:15.640Z,1.80
2023-05-11T16:21:43.546Z,2.00
2023-05-11T16:24:09.832Z,2.00
2023-05-11T16:29:02.480Z,1.90
2023-05-11T16:31:28.919Z,1.80
2023-05-11T16:33:55.209Z,2.10
2023-05-11T16:36:21.482Z,2.20
2023-05-11T16:38:47.889Z,2.17
2023-05-11T16:41:14.427Z,2.10
2023-05-11T16:43:44.082Z,1.90
2023-05-11T16:46:10.641Z,2.07
2023-05-11T16:48:37.015Z,1.90
2023-05-11T16:51:03.492Z,1.90
2023-05-11T16:53:29.781Z,2.03
2023-05-11T16:55:56.922Z,2.00
2023-05-11T16:58:23.974Z,1.93
2023-05-11T17:00:50.634Z,1.90
2023-05-11T17:03:17.519Z,2.10
2023-05-11T17:05:44.333Z,2.13
2023-05-11T17:08:10.818Z,1.90
2023-05-11T17:10:37.081Z,2.20
2023-05-11T17:13:03.311Z,2.27
2023-05-11T17:15:29.571Z,1.97
2023-05-11T17:17:55.956Z,2.27
2023-05-11T17:20:22.281Z,2.47
2023-05-11T17:22:49.006Z,1.90
2023-05-11T17:25:15.294Z,1.90
2023-05-11T17:27:41.579Z,1.90
2023-05-11T17:30:09.444Z,1.90
2023-05-11T17:32:36.581Z,1.87
2023-05-11T17:35:04.158Z,2.27
2023-05-11T17:37:32.089Z,1.90
2023-05-11T17:39:59.503Z,1.80
2023-05-11T17:42:26.026Z,1.93
2023-05-11T17:44:52.557Z,2.00
2023-05-11T17:47:19.132Z,2.37
2023-05-11T17:49:45.442Z,2.23
2023-05-11T17:52:11.695Z,1.90
2023-05-11T17:54:37.942Z,1.97
2023-05-11T17:57:05.137Z,2.07
2023-05-11T17:59:31.396Z,2.13
2023-05-11T18:01:58.782Z,2.07
2023-05-11T18:04:25.105Z,2.10
2023-05-11T18:06:51.921Z,2.30
2023-05-11T18:09:19.537Z,2.50
2023-05-11T18:11:45.776Z,2.10
2023-05-11T18:14:12.063Z,2.30
2023-05-11T18:16:38.429Z,2.10
2023-05-11T18:19:05.411Z,2.20
2023-05-11T18:21:32.082Z,2.30
2023-05-11T18:23:58.420Z,2.00
2023-05-11T18:26:26.037Z,2.43
2023-05-11T18:28:55.494Z,2.40
2023-05-11T18:31:22.065Z,2.50
2023-05-11T18:33:49.117Z,2.10
2023-05-11T18:36:15.812Z,2.23
2023-05-11T18:38:43.464Z,2.50
2023-05-11T18:41:10.124Z,2.50
2023-05-11T18:43:36.561Z,2.63
2023-05-11T18:46:06.483Z,2.17
2023-05-11T18:48:33.677Z,2.23
2023-05-11T18:51:00.005Z,2.78
2023-05-11T18:53:26.660Z,2.40
2023-05-11T18:55:53.865Z,2.20
2023-05-11T18:58:20.711Z,2.60
2023-05-11T19:00:48.519Z,3.00
2023-05-11T19:03:15.246Z,2.60
2023-05-11T19:05:43.546Z,2.57
2023-05-11T19:08:09.864Z,2.67
2023-05-11T19:10:37.984Z,2.60
2023-05-11T19:13:04.797Z,2.77
2023-05-11T19:15:31.247Z,2.40
2023-05-11T19:17:57.542Z,2.40
2023-05-11T19:20:23.801Z,2.33
2023-05-11T19:22:50.055Z,2.80
2023-05-11T19:25:19.425Z,2.80
2023-05-11T19:27:46.397Z,2.53
2023-05-11T19:30:12.924Z,2.83
2023-05-11T19:32:39.447Z,3.00
2023-05-11T19:35:07.330Z,3.00
2023-05-11T19:37:34.040Z,2.87
2023-05-11T19:40:19.257Z,2.90
2023-05-11T19:42:47.027Z,3.00
2023-05-11T19:45:17.567Z,3.00
2023-05-11T19:47:44.638Z,2.83
2023-05-11T19:50:11.083Z,3.13
2023-05-11T19:52:37.493Z,3.27
2023-05-11T19:55:04.434Z,3.20
2023-05-11T19:57:32.197Z,3.13
2023-05-11T19:59:58.740Z,2.93
2023-05-11T20:02:25.085Z,3.00
2023-05-11T20:04:51.963Z,3.17
2023-05-11T20:07:20.099Z,3.60
2023-05-11T20:09:46.373Z,3.40
2023-05-11T20:12:12.681Z,3.67
2023-05-11T20:14:40.928Z,3.33
2023-05-11T20:17:07.521Z,3.47
2023-05-11T20:19:33.798Z,3.37
2023-05-11T20:22:00.054Z,3.30
2023-05-11T20:24:26.472Z,3.73
2023-05-11T20:26:52.786Z,3.50
2023-05-11T20:29:19.092Z,3.20
2023-05-11T20:31:46.549Z,3.57
2023-05-11T20:34:13.852Z,3.93
2023-05-11T20:36:40.339Z,3.60
2023-05-11T20:39:07.127Z,3.60
2023-05-11T20:41:33.537Z,3.60
2023-05-11T20:44:00.091Z,3.23
2023-05-11T20:46:26.963Z,3.23
2023-05-11T20:48:53.265Z,3.63
2023-05-11T20:51:23.109Z,3.30
2023-05-11T20:56:59.378Z,3.57
2023-05-11T21:01:54.898Z,3.53
2023-05-11T21:04:21.412Z,3.57
2023-05-11T21:06:47.644Z,3.50
2023-05-11T21:09:14.533Z,3.50
2023-05-11T21:11:40.811Z,3.37
2023-05-11T21:14:07.117Z,3.33
2023-05-11T21:16:33.379Z,3.37
2023-05-11T21:18:59.990Z,3.47
2023-05-11T21:21:26.333Z,3.50
2023-05-11T21:23:52.620Z,3.70
2023-05-11T21:26:18.850Z,3.23
2023-05-11T21:28:45.098Z,3.57
2023-05-11T21:31:11.570Z,3.70
2023-05-11T21:33:37.875Z,3.80
2023-05-11T21:36:05.838Z,3.60
2023-05-11T21:38:32.390Z,4.00
2023-05-11T21:40:58.729Z,4.13
2023-05-11T21:43:24.969Z,3.90
2023-05-11T21:45:51.379Z,4.00
2023-05-11T21:48:17.683Z,3.70
2023-05-11T21:50:44.261Z,4.00
2023-05-11T21:53:10.825Z,3.80
2023-05-11T21:55:37.084Z,4.20
2023-05-11T21:58:03.614Z,4.27
2023-05-11T22:00:30.528Z,4.07
2023-05-11T22:02:56.916Z,3.80
2023-05-11T22:05:23.270Z,4.07
2023-05-11T22:07:50.423Z,4.37
2023-05-11T22:10:18.926Z,4.03
2023-05-11T22:12:45.325Z,3.83
2023-05-11T22:15:11.963Z,4.13
2023-05-11T22:17:38.513Z,3.90
2023-05-11T22:20:06.458Z,4.37
2023-05-11T22:22:33.199Z,4.03
2023-05-11T22:24:59.446Z,4.67
2023-05-11T22:27:25.754Z,4.53
2023-05-11T22:29:53.106Z,4.20
2023-05-11T22:32:19.374Z,4.30
2023-05-11T22:34:45.785Z,4.30
2023-05-11T22:37:12.053Z,4.33
2023-05-11T22:39:38.350Z,4.03
2023-05-11T22:42:04.695Z,4.33
2023-05-11T22:44:30.948Z,4.43
2023-05-11T22:46:59.242Z,4.27
2023-05-11T22:49:25.576Z,4.50
2023-05-11T22:51:51.904Z,4.07
2023-05-11T22:54:18.295Z,4.20
2023-05-11T22:56:44.514Z,4.50
2023-05-11T22:59:10.749Z,4.47
2023-05-11T23:01:37.255Z,4.73
2023-05-11T23:04:03.560Z,4.50
2023-05-11T23:06:29.973Z,4.87
2023-05-11T23:08:56.226Z,4.10
2023-05-11T23:11:23.061Z,4.53
2023-05-11T23:13:49.334Z,4.33
2023-05-11T23:16:15.911Z,4.53
2023-05-11T23:18:42.398Z,4.63
2023-05-11T23:21:09.145Z,4.43
2023-05-11T23:23:35.557Z,4.70
2023-05-11T23:26:01.971Z,4.47
2023-05-11T23:28:28.208Z,4.40
2023-05-11T23:30:54.499Z,4.93
2023-05-11T23:33:20.799Z,4.30
2023-05-11T23:35:47.311Z,4.60
2023-05-11T23:38:13.722Z,4.57
2023-05-11T23:40:39.949Z,4.47
2023-05-11T23:43:06.187Z,4.80
2023-05-11T23:45:32.462Z,4.57
2023-05-11T23:47:58.766Z,4.37
2023-05-11T23:50:25.029Z,4.47
2023-05-11T23:52:51.383Z,4.47
2023-05-11T23:55:17.933Z,4.53
2023-05-11T23:57:44.991Z,4.10
